sensor_id;sensor_type;location;lat;lon;timestamp;P1;durP1;ratioP1;P2;durP2;ratioP2
24357;SDS011;13668;52.154;5.580;2023-09-30T00:01:30;10.63;;;3.30;;
24357;SDS011;13668;52.154;5.580;2023-09-30T00:03:56;5.78;;;2.70;;
24357;SDS011;13668;52.154;5.580;2023-09-30T00:06:22;9.40;;;3.35;;
24357;SDS011;13668;52.154;5.580;2023-09-30T00:08:48;5.07;;;2.88;;
24357;SDS011;13668;52.154;5.580;2023-09-30T00:11:17;4.70;;;2.92;;
24357;SDS011;13668;52.154;5.580;2023-09-30T00:13:43;4.40;;;2.75;;
24357;SDS011;13668;52.154;5.580;2023-09-30T00:16:10;11.43;;;3.28;;
24357;SDS011;13668;52.154;5.580;2023-09-30T00:18:36;8.77;;;2.90;;
24357;SDS011;13668;52.154;5.580;2023-09-30T00:21:02;14.80;;;3.17;;
24357;SDS011;13668;52.154;5.580;2023-09-30T00:23:28;5.60;;;3.53;;
24357;SDS011;13668;52.154;5.580;2023-09-30T00:25:54;10.55;;;2.85;;
24357;SDS011;13668;52.154;5.580;2023-09-30T00:28:20;3.97;;;2.70;;
24357;SDS011;13668;52.154;5.580;2023-09-30T00:30:46;9.90;;;3.38;;
24357;SDS011;13668;52.154;5.580;2023-09-30T00:33:13;5.72;;;3.42;;
24357;SDS011;13668;52.154;5.580;2023-09-30T00:35:39;6.22;;;3.03;;
24357;SDS011;13668;52.154;5.580;2023-09-30T00:38:05;8.60;;;3.17;;
24357;SDS011;13668;52.154;5.580;2023-09-30T00:40:31;4.78;;;2.97;;
24357;SDS011;13668;52.154;5.580;2023-09-30T00:42:57;6.97;;;3.20;;
24357;SDS011;13668;52.154;5.580;2023-09-30T00:45:23;7.95;;;3.33;;
24357;SDS011;13668;52.154;5.580;2023-09-30T00:47:50;8.13;;;3.10;;
24357;SDS011;13668;52.154;5.580;2023-09-30T00:50:16;6.85;;;3.50;;
24357;SDS011;13668;52.154;5.580;2023-09-30T00:52:42;6.97;;;3.05;;
24357;SDS011;13668;52.154;5.580;2023-09-30T00:55:08;6.72;;;3.60;;
24357;SDS011;13668;52.154;5.580;2023-09-30T00:57:35;8.13;;;3.20;;
24357;SDS011;13668;52.154;5.580;2023-09-30T01:00:02;4.85;;;2.95;;
24357;SDS011;13668;52.154;5.580;2023-09-30T01:02:28;6.65;;;3.80;;
24357;SDS011;13668;52.154;5.580;2023-09-30T01:04:55;5.95;;;3.60;;
24357;SDS011;13668;52.154;5.580;2023-09-30T01:07:21;9.27;;;3.83;;
24357;SDS011;13668;52.154;5.580;2023-09-30T01:09:47;7.80;;;4.13;;
24357;SDS011;13668;52.154;5.580;2023-09-30T01:12:13;3.75;;;2.90;;
24357;SDS011;13668;52.154;5.580;2023-09-30T01:14:39;5.85;;;3.42;;
24357;SDS011;13668;52.154;5.580;2023-09-30T01:17:08;5.60;;;2.88;;
24357;SDS011;13668;52.154;5.580;2023-09-30T01:19:38;7.88;;;3.38;;
24357;SDS011;13668;52.154;5.580;2023-09-30T01:22:04;7.40;;;3.22;;
24357;SDS011;13668;52.154;5.580;2023-09-30T01:24:30;5.60;;;3.13;;
24357;SDS011;13668;52.154;5.580;2023-09-30T01:26:56;8.45;;;4.25;;
24357;SDS011;13668;52.154;5.580;2023-09-30T01:29:22;11.85;;;3.80;;
24357;SDS011;13668;52.154;5.580;2023-09-30T01:31:51;5.25;;;2.95;;
24357;SDS011;13668;52.154;5.580;2023-09-30T01:34:17;7.57;;;3.08;;
24357;SDS011;13668;52.154;5.580;2023-09-30T01:36:43;8.18;;;3.47;;
24357;SDS011;13668;52.154;5.580;2023-09-30T01:39:09;4.45;;;3.22;;
24357;SDS011;13668;52.154;5.580;2023-09-30T01:41:36;5.25;;;3.10;;
24357;SDS011;13668;52.154;5.580;2023-09-30T01:44:02;6.82;;;4.00;;
24357;SDS011;13668;52.154;5.580;2023-09-30T01:46:28;4.80;;;3.53;;
24357;SDS011;13668;52.154;5.580;2023-09-30T01:48:54;6.68;;;3.42;;
24357;SDS011;13668;52.154;5.580;2023-09-30T01:51:20;8.70;;;4.03;;
24357;SDS011;13668;52.154;5.580;2023-09-30T01:53:47;10.15;;;4.20;;
24357;SDS011;13668;52.154;5.580;2023-09-30T01:56:13;8.57;;;4.50;;
24357;SDS011;13668;52.154;5.580;2023-09-30T01:58:39;6.15;;;4.15;;
24357;SDS011;13668;52.154;5.580;2023-09-30T02:01:05;6.72;;;3.33;;
24357;SDS011;13668;52.154;5.580;2023-09-30T02:03:31;5.93;;;3.75;;
24357;SDS011;13668;52.154;5.580;2023-09-30T02:05:57;7.35;;;3.70;;
24357;SDS011;13668;52.154;5.580;2023-09-30T02:08:23;7.05;;;3.00;;
24357;SDS011;13668;52.154;5.580;2023-09-30T02:10:50;6.15;;;4.07;;
24357;SDS011;13668;52.154;5.580;2023-09-30T02:13:16;8.02;;;3.75;;
24357;SDS011;13668;52.154;5.580;2023-09-30T02:15:42;14.38;;;4.22;;
24357;SDS011;13668;52.154;5.580;2023-09-30T02:18:09;6.53;;;4.28;;
24357;SDS011;13668;52.154;5.580;2023-09-30T02:20:35;7.40;;;3.40;;
24357;SDS011;13668;52.154;5.580;2023-09-30T02:23:05;6.57;;;3.58;;
24357;SDS011;13668;52.154;5.580;2023-09-30T02:25:31;7.20;;;4.30;;
24357;SDS011;13668;52.154;5.580;2023-09-30T02:27:58;9.52;;;4.38;;
24357;SDS011;13668;52.154;5.580;2023-09-30T02:30:25;5.25;;;3.33;;
24357;SDS011;13668;52.154;5.580;2023-09-30T02:32:52;5.95;;;4.05;;
24357;SDS011;13668;52.154;5.580;2023-09-30T02:35:18;9.15;;;3.83;;
24357;SDS011;13668;52.154;5.580;2023-09-30T02:37:45;6.82;;;4.05;;
24357;SDS011;13668;52.154;5.580;2023-09-30T02:40:11;7.00;;;3.88;;
24357;SDS011;13668;52.154;5.580;2023-09-30T02:42:40;5.30;;;3.65;;
24357;SDS011;13668;52.154;5.580;2023-09-30T02:45:06;7.28;;;3.78;;
24357;SDS011;13668;52.154;5.580;2023-09-30T02:47:35;8.25;;;4.90;;
24357;SDS011;13668;52.154;5.580;2023-09-30T02:50:02;9.35;;;4.35;;
24357;SDS011;13668;52.154;5.580;2023-09-30T02:52:29;8.70;;;4.38;;
24357;SDS011;13668;52.154;5.580;2023-09-30T02:54:56;6.43;;;4.32;;
24357;SDS011;13668;52.154;5.580;2023-09-30T02:57:22;10.50;;;5.25;;
24357;SDS011;13668;52.154;5.580;2023-09-30T02:59:48;8.45;;;4.68;;
24357;SDS011;13668;52.154;5.580;2023-09-30T03:02:14;9.10;;;4.47;;
24357;SDS011;13668;52.154;5.580;2023-09-30T03:04:41;8.82;;;5.32;;
24357;SDS011;13668;52.154;5.580;2023-09-30T03:07:11;11.90;;;5.28;;
24357;SDS011;13668;52.154;5.580;2023-09-30T03:09:37;9.57;;;4.90;;
24357;SDS011;13668;52.154;5.580;2023-09-30T03:12:03;6.75;;;4.10;;
24357;SDS011;13668;52.154;5.580;2023-09-30T03:14:29;8.35;;;4.70;;
24357;SDS011;13668;52.154;5.580;2023-09-30T03:16:56;6.07;;;3.92;;
24357;SDS011;13668;52.154;5.580;2023-09-30T03:19:22;10.25;;;5.00;;
24357;SDS011;13668;52.154;5.580;2023-09-30T03:21:48;7.22;;;4.70;;
24357;SDS011;13668;52.154;5.580;2023-09-30T03:24:15;7.30;;;4.60;;
24357;SDS011;13668;52.154;5.580;2023-09-30T03:26:41;11.05;;;4.85;;
24357;SDS011;13668;52.154;5.580;2023-09-30T03:29:08;9.55;;;5.50;;
24357;SDS011;13668;52.154;5.580;2023-09-30T03:31:34;8.95;;;5.15;;
24357;SDS011;13668;52.154;5.580;2023-09-30T03:34:02;7.97;;;5.13;;
24357;SDS011;13668;52.154;5.580;2023-09-30T03:36:29;8.80;;;4.78;;
24357;SDS011;13668;52.154;5.580;2023-09-30T03:38:55;6.32;;;4.47;;
24357;SDS011;13668;52.154;5.580;2023-09-30T03:41:21;6.80;;;4.72;;
24357;SDS011;13668;52.154;5.580;2023-09-30T03:43:47;6.75;;;4.75;;
24357;SDS011;13668;52.154;5.580;2023-09-30T03:46:14;9.18;;;4.88;;
24357;SDS011;13668;52.154;5.580;2023-09-30T03:48:41;9.07;;;4.57;;
24357;SDS011;13668;52.154;5.580;2023-09-30T03:51:11;9.30;;;4.78;;
24357;SDS011;13668;52.154;5.580;2023-09-30T03:53:43;17.10;;;6.50;;
24357;SDS011;13668;52.154;5.580;2023-09-30T03:56:09;9.30;;;5.32;;
24357;SDS011;13668;52.154;5.580;2023-09-30T03:58:41;10.27;;;5.18;;
24357;SDS011;13668;52.154;5.580;2023-09-30T04:01:08;10.57;;;6.07;;
24357;SDS011;13668;52.154;5.580;2023-09-30T04:03:44;9.48;;;6.78;;
24357;SDS011;13668;52.154;5.580;2023-09-30T04:06:10;9.77;;;6.32;;
24357;SDS011;13668;52.154;5.580;2023-09-30T04:08:37;10.82;;;5.80;;
24357;SDS011;13668;52.154;5.580;2023-09-30T04:11:03;11.15;;;6.07;;
24357;SDS011;13668;52.154;5.580;2023-09-30T04:13:29;10.15;;;6.15;;
24357;SDS011;13668;52.154;5.580;2023-09-30T04:15:55;11.93;;;6.22;;
24357;SDS011;13668;52.154;5.580;2023-09-30T04:18:23;13.73;;;6.72;;
24357;SDS011;13668;52.154;5.580;2023-09-30T04:20:51;9.90;;;6.13;;
24357;SDS011;13668;52.154;5.580;2023-09-30T04:23:17;10.82;;;4.97;;
24357;SDS011;13668;52.154;5.580;2023-09-30T04:25:45;10.40;;;6.28;;
24357;SDS011;13668;52.154;5.580;2023-09-30T04:28:11;11.00;;;6.50;;
24357;SDS011;13668;52.154;5.580;2023-09-30T04:30:39;10.50;;;6.22;;
24357;SDS011;13668;52.154;5.580;2023-09-30T04:33:06;10.02;;;5.57;;
24357;SDS011;13668;52.154;5.580;2023-09-30T04:35:33;10.00;;;6.07;;
24357;SDS011;13668;52.154;5.580;2023-09-30T04:38:00;11.23;;;6.28;;
24357;SDS011;13668;52.154;5.580;2023-09-30T04:40:26;13.70;;;7.53;;
24357;SDS011;13668;52.154;5.580;2023-09-30T04:42:52;11.68;;;7.65;;
24357;SDS011;13668;52.154;5.580;2023-09-30T04:45:26;11.80;;;6.95;;
24357;SDS011;13668;52.154;5.580;2023-09-30T04:47:55;11.18;;;7.00;;
24357;SDS011;13668;52.154;5.580;2023-09-30T04:50:21;13.27;;;6.40;;
24357;SDS011;13668;52.154;5.580;2023-09-30T04:52:48;13.90;;;7.28;;
24357;SDS011;13668;52.154;5.580;2023-09-30T04:55:14;12.20;;;6.47;;
24357;SDS011;13668;52.154;5.580;2023-09-30T04:57:42;12.57;;;6.47;;
24357;SDS011;13668;52.154;5.580;2023-09-30T05:00:10;11.85;;;7.10;;
24357;SDS011;13668;52.154;5.580;2023-09-30T05:02:36;11.63;;;7.78;;
24357;SDS011;13668;52.154;5.580;2023-09-30T05:05:02;11.93;;;7.18;;
24357;SDS011;13668;52.154;5.580;2023-09-30T05:07:31;9.65;;;6.93;;
24357;SDS011;13668;52.154;5.580;2023-09-30T05:09:57;13.95;;;7.13;;
24357;SDS011;13668;52.154;5.580;2023-09-30T05:12:24;12.73;;;7.55;;
24357;SDS011;13668;52.154;5.580;2023-09-30T05:14:50;12.10;;;7.70;;
24357;SDS011;13668;52.154;5.580;2023-09-30T05:17:17;13.60;;;7.53;;
24357;SDS011;13668;52.154;5.580;2023-09-30T05:19:43;13.20;;;7.65;;
24357;SDS011;13668;52.154;5.580;2023-09-30T05:22:09;12.40;;;7.72;;
24357;SDS011;13668;52.154;5.580;2023-09-30T05:24:35;11.30;;;7.40;;
24357;SDS011;13668;52.154;5.580;2023-09-30T05:27:01;12.23;;;7.32;;
24357;SDS011;13668;52.154;5.580;2023-09-30T05:29:27;14.60;;;8.55;;
24357;SDS011;13668;52.154;5.580;2023-09-30T05:31:53;11.65;;;7.45;;
24357;SDS011;13668;52.154;5.580;2023-09-30T05:34:19;15.90;;;9.70;;
24357;SDS011;13668;52.154;5.580;2023-09-30T05:36:45;15.10;;;8.85;;
24357;SDS011;13668;52.154;5.580;2023-09-30T05:39:11;14.32;;;8.52;;
24357;SDS011;13668;52.154;5.580;2023-09-30T05:41:37;12.68;;;8.15;;
24357;SDS011;13668;52.154;5.580;2023-09-30T05:44:03;15.65;;;8.65;;
24357;SDS011;13668;52.154;5.580;2023-09-30T05:46:30;13.55;;;7.63;;
24357;SDS011;13668;52.154;5.580;2023-09-30T05:48:56;16.13;;;8.18;;
24357;SDS011;13668;52.154;5.580;2023-09-30T05:51:22;12.38;;;8.48;;
24357;SDS011;13668;52.154;5.580;2023-09-30T05:53:48;13.77;;;8.20;;
24357;SDS011;13668;52.154;5.580;2023-09-30T05:56:14;13.27;;;9.40;;
24357;SDS011;13668;52.154;5.580;2023-09-30T05:58:41;16.65;;;8.93;;
24357;SDS011;13668;52.154;5.580;2023-09-30T06:01:07;13.73;;;9.23;;
24357;SDS011;13668;52.154;5.580;2023-09-30T06:03:36;15.52;;;8.15;;
24357;SDS011;13668;52.154;5.580;2023-09-30T06:06:09;15.70;;;9.18;;
24357;SDS011;13668;52.154;5.580;2023-09-30T06:08:36;16.42;;;9.75;;
24357;SDS011;13668;52.154;5.580;2023-09-30T06:11:02;16.70;;;9.30;;
24357;SDS011;13668;52.154;5.580;2023-09-30T06:13:28;13.38;;;8.18;;
24357;SDS011;13668;52.154;5.580;2023-09-30T06:15:56;14.75;;;8.57;;
24357;SDS011;13668;52.154;5.580;2023-09-30T06:18:22;15.80;;;9.00;;
24357;SDS011;13668;52.154;5.580;2023-09-30T06:20:48;15.15;;;9.65;;
24357;SDS011;13668;52.154;5.580;2023-09-30T06:23:15;14.75;;;9.50;;
24357;SDS011;13668;52.154;5.580;2023-09-30T06:25:42;15.32;;;9.95;;
24357;SDS011;13668;52.154;5.580;2023-09-30T06:28:08;15.27;;;9.02;;
24357;SDS011;13668;52.154;5.580;2023-09-30T06:30:34;17.30;;;9.38;;
24357;SDS011;13668;52.154;5.580;2023-09-30T06:33:00;16.23;;;9.43;;
24357;SDS011;13668;52.154;5.580;2023-09-30T06:35:27;15.32;;;8.82;;
24357;SDS011;13668;52.154;5.580;2023-09-30T06:37:54;19.73;;;10.52;;
24357;SDS011;13668;52.154;5.580;2023-09-30T06:40:20;17.42;;;10.02;;
24357;SDS011;13668;52.154;5.580;2023-09-30T06:42:47;17.77;;;9.52;;
24357;SDS011;13668;52.154;5.580;2023-09-30T06:45:13;20.80;;;10.02;;
24357;SDS011;13668;52.154;5.580;2023-09-30T06:47:40;13.63;;;8.70;;
24357;SDS011;13668;52.154;5.580;2023-09-30T06:50:10;15.38;;;9.90;;
24357;SDS011;13668;52.154;5.580;2023-09-30T06:52:38;17.73;;;10.68;;
24357;SDS011;13668;52.154;5.580;2023-09-30T06:55:04;20.60;;;10.95;;
24357;SDS011;13668;52.154;5.580;2023-09-30T06:57:39;19.48;;;9.88;;
24357;SDS011;13668;52.154;5.580;2023-09-30T07:02:34;20.25;;;11.57;;
24357;SDS011;13668;52.154;5.580;2023-09-30T07:05:01;16.27;;;10.60;;
24357;SDS011;13668;52.154;5.580;2023-09-30T07:07:28;18.35;;;10.05;;
24357;SDS011;13668;52.154;5.580;2023-09-30T07:09:54;22.63;;;12.20;;
24357;SDS011;13668;52.154;5.580;2023-09-30T07:12:21;14.30;;;10.32;;
24357;SDS011;13668;52.154;5.580;2023-09-30T07:14:47;16.73;;;10.18;;
24357;SDS011;13668;52.154;5.580;2023-09-30T07:17:13;19.95;;;11.23;;
24357;SDS011;13668;52.154;5.580;2023-09-30T07:19:39;17.70;;;10.77;;
24357;SDS011;13668;52.154;5.580;2023-09-30T07:22:05;17.00;;;10.80;;
24357;SDS011;13668;52.154;5.580;2023-09-30T07:24:31;16.23;;;10.23;;
24357;SDS011;13668;52.154;5.580;2023-09-30T07:26:57;17.15;;;10.55;;
24357;SDS011;13668;52.154;5.580;2023-09-30T07:29:23;20.25;;;10.88;;
24357;SDS011;13668;52.154;5.580;2023-09-30T07:31:49;19.17;;;11.48;;
24357;SDS011;13668;52.154;5.580;2023-09-30T07:34:16;20.10;;;12.15;;
24357;SDS011;13668;52.154;5.580;2023-09-30T07:36:42;18.95;;;11.27;;
24357;SDS011;13668;52.154;5.580;2023-09-30T07:39:08;19.27;;;10.75;;
24357;SDS011;13668;52.154;5.580;2023-09-30T07:41:34;19.23;;;11.20;;
24357;SDS011;13668;52.154;5.580;2023-09-30T07:44:03;16.15;;;11.00;;
24357;SDS011;13668;52.154;5.580;2023-09-30T07:46:30;17.02;;;10.40;;
24357;SDS011;13668;52.154;5.580;2023-09-30T07:48:56;18.40;;;11.02;;
24357;SDS011;13668;52.154;5.580;2023-09-30T07:51:24;18.90;;;10.00;;
24357;SDS011;13668;52.154;5.580;2023-09-30T07:53:50;19.08;;;11.38;;
24357;SDS011;13668;52.154;5.580;2023-09-30T07:56:16;19.90;;;11.48;;
24357;SDS011;13668;52.154;5.580;2023-09-30T07:58:42;17.00;;;10.38;;
24357;SDS011;13668;52.154;5.580;2023-09-30T08:01:08;17.33;;;11.55;;
24357;SDS011;13668;52.154;5.580;2023-09-30T08:03:34;16.58;;;10.20;;
24357;SDS011;13668;52.154;5.580;2023-09-30T08:06:00;17.15;;;9.75;;
24357;SDS011;13668;52.154;5.580;2023-09-30T08:08:26;16.77;;;10.70;;
24357;SDS011;13668;52.154;5.580;2023-09-30T08:10:52;17.60;;;10.50;;
24357;SDS011;13668;52.154;5.580;2023-09-30T08:13:21;15.10;;;10.00;;
24357;SDS011;13668;52.154;5.580;2023-09-30T08:15:48;15.88;;;9.30;;
24357;SDS011;13668;52.154;5.580;2023-09-30T08:18:14;15.60;;;10.02;;
24357;SDS011;13668;52.154;5.580;2023-09-30T08:20:40;19.10;;;10.25;;
24357;SDS011;13668;52.154;5.580;2023-09-30T08:23:06;16.25;;;10.60;;
24357;SDS011;13668;52.154;5.580;2023-09-30T08:25:32;16.40;;;8.75;;
24357;SDS011;13668;52.154;5.580;2023-09-30T08:27:57;13.40;;;8.45;;
24357;SDS011;13668;52.154;5.580;2023-09-30T08:30:23;13.13;;;9.52;;
24357;SDS011;13668;52.154;5.580;2023-09-30T08:32:49;15.52;;;8.82;;
24357;SDS011;13668;52.154;5.580;2023-09-30T08:35:15;14.60;;;8.77;;
24357;SDS011;13668;52.154;5.580;2023-09-30T08:37:41;14.50;;;8.95;;
24357;SDS011;13668;52.154;5.580;2023-09-30T08:40:07;11.68;;;8.57;;
24357;SDS011;13668;52.154;5.580;2023-09-30T08:42:34;14.20;;;8.52;;
24357;SDS011;13668;52.154;5.580;2023-09-30T08:45:01;13.52;;;8.70;;
24357;SDS011;13668;52.154;5.580;2023-09-30T08:47:27;12.32;;;7.93;;
24357;SDS011;13668;52.154;5.580;2023-09-30T08:49:54;14.43;;;7.68;;
24357;SDS011;13668;52.154;5.580;2023-09-30T08:52:22;14.10;;;8.00;;
24357;SDS011;13668;52.154;5.580;2023-09-30T08:54:48;8.80;;;7.07;;
24357;SDS011;13668;52.154;5.580;2023-09-30T08:57:14;12.00;;;7.85;;
24357;SDS011;13668;52.154;5.580;2023-09-30T08:59:44;13.65;;;8.23;;
24357;SDS011;13668;52.154;5.580;2023-09-30T09:02:12;16.98;;;8.73;;
24357;SDS011;13668;52.154;5.580;2023-09-30T09:04:38;13.43;;;7.45;;
24357;SDS011;13668;52.154;5.580;2023-09-30T09:07:04;11.30;;;6.93;;
24357;SDS011;13668;52.154;5.580;2023-09-30T09:09:30;11.40;;;6.65;;
24357;SDS011;13668;52.154;5.580;2023-09-30T09:11:57;9.80;;;6.47;;
24357;SDS011;13668;52.154;5.580;2023-09-30T09:14:36;9.65;;;6.05;;
24357;SDS011;13668;52.154;5.580;2023-09-30T09:17:02;11.02;;;6.38;;
24357;SDS011;13668;52.154;5.580;2023-09-30T09:19:29;11.68;;;7.15;;
24357;SDS011;13668;52.154;5.580;2023-09-30T09:21:57;9.40;;;5.40;;
24357;SDS011;13668;52.154;5.580;2023-09-30T09:24:30;8.40;;;5.63;;
24357;SDS011;13668;52.154;5.580;2023-09-30T09:27:03;10.57;;;5.38;;
24357;SDS011;13668;52.154;5.580;2023-09-30T09:29:30;10.18;;;5.93;;
24357;SDS011;13668;52.154;5.580;2023-09-30T09:32:06;8.70;;;5.47;;
24357;SDS011;13668;52.154;5.580;2023-09-30T09:34:32;8.18;;;4.75;;
24357;SDS011;13668;52.154;5.580;2023-09-30T09:36:58;8.15;;;4.97;;
24357;SDS011;13668;52.154;5.580;2023-09-30T09:39:30;9.07;;;5.03;;
24357;SDS011;13668;52.154;5.580;2023-09-30T09:41:56;8.50;;;4.68;;
24357;SDS011;13668;52.154;5.580;2023-09-30T09:44:23;7.15;;;4.28;;
24357;SDS011;13668;52.154;5.580;2023-09-30T09:46:52;9.30;;;4.38;;
24357;SDS011;13668;52.154;5.580;2023-09-30T09:49:18;5.30;;;3.60;;
24357;SDS011;13668;52.154;5.580;2023-09-30T09:51:48;6.28;;;4.05;;
24357;SDS011;13668;52.154;5.580;2023-09-30T09:54:15;5.28;;;3.70;;
24357;SDS011;13668;52.154;5.580;2023-09-30T09:56:41;8.75;;;4.70;;
24357;SDS011;13668;52.154;5.580;2023-09-30T09:59:07;5.90;;;3.90;;
24357;SDS011;13668;52.154;5.580;2023-09-30T10:01:35;5.40;;;3.90;;
24357;SDS011;13668;52.154;5.580;2023-09-30T10:04:01;5.13;;;3.95;;
24357;SDS011;13668;52.154;5.580;2023-09-30T10:06:28;6.55;;;4.05;;
24357;SDS011;13668;52.154;5.580;2023-09-30T10:08:54;8.38;;;4.57;;
24357;SDS011;13668;52.154;5.580;2023-09-30T10:11:22;4.65;;;3.65;;
24357;SDS011;13668;52.154;5.580;2023-09-30T10:19:20;8.35;;;4.55;;
24357;SDS011;13668;52.154;5.580;2023-09-30T10:24:34;9.38;;;4.43;;
24357;SDS011;13668;52.154;5.580;2023-09-30T10:29:45;9.68;;;5.30;;
24357;SDS011;13668;52.154;5.580;2023-09-30T10:32:11;9.18;;;4.50;;
24357;SDS011;13668;52.154;5.580;2023-09-30T10:34:37;8.52;;;4.88;;
24357;SDS011;13668;52.154;5.580;2023-09-30T10:37:19;10.32;;;4.70;;
24357;SDS011;13668;52.154;5.580;2023-09-30T10:45:05;5.65;;;3.70;;
24357;SDS011;13668;52.154;5.580;2023-09-30T10:47:35;5.50;;;3.25;;
24357;SDS011;13668;52.154;5.580;2023-09-30T10:50:02;5.50;;;3.67;;
24357;SDS011;13668;52.154;5.580;2023-09-30T10:52:29;6.45;;;4.03;;
24357;SDS011;13668;52.154;5.580;2023-09-30T10:55:01;8.52;;;4.22;;
24357;SDS011;13668;52.154;5.580;2023-09-30T10:57:28;7.93;;;4.22;;
24357;SDS011;13668;52.154;5.580;2023-09-30T11:02:52;5.57;;;3.30;;
24357;SDS011;13668;52.154;5.580;2023-09-30T11:05:19;7.90;;;3.63;;
24357;SDS011;13668;52.154;5.580;2023-09-30T11:07:47;5.40;;;3.17;;
24357;SDS011;13668;52.154;5.580;2023-09-30T11:10:17;5.82;;;2.30;;
24357;SDS011;13668;52.154;5.580;2023-09-30T11:13:01;5.18;;;2.17;;
24357;SDS011;13668;52.154;5.580;2023-09-30T11:15:27;5.07;;;1.80;;
24357;SDS011;13668;52.154;5.580;2023-09-30T11:17:53;7.35;;;2.45;;
24357;SDS011;13668;52.154;5.580;2023-09-30T11:20:20;4.72;;;2.15;;
24357;SDS011;13668;52.154;5.580;2023-09-30T11:22:46;3.35;;;1.60;;
24357;SDS011;13668;52.154;5.580;2023-09-30T11:25:17;4.32;;;2.30;;
24357;SDS011;13668;52.154;5.580;2023-09-30T11:27:44;1.88;;;1.27;;
24357;SDS011;13668;52.154;5.580;2023-09-30T11:30:10;5.65;;;1.85;;
24357;SDS011;13668;52.154;5.580;2023-09-30T11:32:37;4.10;;;1.80;;
24357;SDS011;13668;52.154;5.580;2023-09-30T11:35:05;1.80;;;0.98;;
24357;SDS011;13668;52.154;5.580;2023-09-30T11:37:34;2.83;;;1.60;;
24357;SDS011;13668;52.154;5.580;2023-09-30T11:40:10;4.53;;;1.67;;
24357;SDS011;13668;52.154;5.580;2023-09-30T11:42:36;5.20;;;2.00;;
24357;SDS011;13668;52.154;5.580;2023-09-30T11:45:17;6.78;;;2.28;;
24357;SDS011;13668;52.154;5.580;2023-09-30T11:47:43;3.47;;;1.92;;
24357;SDS011;13668;52.154;5.580;2023-09-30T11:50:09;1.65;;;1.15;;
24357;SDS011;13668;52.154;5.580;2023-09-30T11:52:36;3.58;;;2.10;;
24357;SDS011;13668;52.154;5.580;2023-09-30T11:55:05;3.22;;;1.20;;
24357;SDS011;13668;52.154;5.580;2023-09-30T11:57:31;3.42;;;1.35;;
24357;SDS011;13668;52.154;5.580;2023-09-30T11:59:57;4.15;;;1.73;;
24357;SDS011;13668;52.154;5.580;2023-09-30T12:02:23;5.47;;;1.70;;
24357;SDS011;13668;52.154;5.580;2023-09-30T12:04:49;4.90;;;2.05;;
24357;SDS011;13668;52.154;5.580;2023-09-30T12:07:15;6.55;;;2.88;;
24357;SDS011;13668;52.154;5.580;2023-09-30T12:09:41;4.97;;;2.22;;
24357;SDS011;13668;52.154;5.580;2023-09-30T12:12:07;3.97;;;1.83;;
24357;SDS011;13668;52.154;5.580;2023-09-30T12:14:34;4.38;;;1.33;;
24357;SDS011;13668;52.154;5.580;2023-09-30T12:17:00;3.15;;;1.27;;
24357;SDS011;13668;52.154;5.580;2023-09-30T12:19:26;2.70;;;1.20;;
24357;SDS011;13668;52.154;5.580;2023-09-30T12:21:52;4.38;;;1.15;;
24357;SDS011;13668;52.154;5.580;2023-09-30T12:24:18;4.03;;;1.35;;
24357;SDS011;13668;52.154;5.580;2023-09-30T12:26:46;2.53;;;1.70;;
24357;SDS011;13668;52.154;5.580;2023-09-30T12:29:16;3.53;;;1.23;;
24357;SDS011;13668;52.154;5.580;2023-09-30T12:31:45;5.20;;;1.10;;
24357;SDS011;13668;52.154;5.580;2023-09-30T12:34:12;2.13;;;1.08;;
24357;SDS011;13668;52.154;5.580;2023-09-30T12:36:38;3.45;;;1.52;;
24357;SDS011;13668;52.154;5.580;2023-09-30T12:39:04;3.53;;;1.50;;
24357;SDS011;13668;52.154;5.580;2023-09-30T12:41:36;3.85;;;1.40;;
24357;SDS011;13668;52.154;5.580;2023-09-30T12:44:02;2.38;;;1.40;;
24357;SDS011;13668;52.154;5.580;2023-09-30T12:46:28;2.78;;;1.40;;
24357;SDS011;13668;52.154;5.580;2023-09-30T12:48:54;3.58;;;1.77;;
24357;SDS011;13668;52.154;5.580;2023-09-30T12:51:20;2.90;;;2.10;;
24357;SDS011;13668;52.154;5.580;2023-09-30T12:53:46;4.05;;;1.60;;
24357;SDS011;13668;52.154;5.580;2023-09-30T12:56:12;7.47;;;2.17;;
24357;SDS011;13668;52.154;5.580;2023-09-30T12:58:38;4.70;;;1.60;;
24357;SDS011;13668;52.154;5.580;2023-09-30T13:01:04;3.25;;;1.55;;
24357;SDS011;13668;52.154;5.580;2023-09-30T13:03:31;2.67;;;1.27;;
24357;SDS011;13668;52.154;5.580;2023-09-30T13:05:57;6.28;;;1.88;;
24357;SDS011;13668;52.154;5.580;2023-09-30T13:08:23;5.35;;;1.67;;
24357;SDS011;13668;52.154;5.580;2023-09-30T13:10:49;3.30;;;1.95;;
24357;SDS011;13668;52.154;5.580;2023-09-30T13:13:17;5.43;;;2.08;;
24357;SDS011;13668;52.154;5.580;2023-09-30T13:15:43;2.55;;;1.75;;
24357;SDS011;13668;52.154;5.580;2023-09-30T13:18:09;6.15;;;1.83;;
24357;SDS011;13668;52.154;5.580;2023-09-30T13:20:35;6.47;;;1.88;;
24357;SDS011;13668;52.154;5.580;2023-09-30T13:23:01;5.03;;;1.80;;
24357;SDS011;13668;52.154;5.580;2023-09-30T13:25:28;5.65;;;1.80;;
24357;SDS011;13668;52.154;5.580;2023-09-30T13:27:54;4.97;;;1.98;;
24357;SDS011;13668;52.154;5.580;2023-09-30T13:30:20;3.70;;;2.72;;
24357;SDS011;13668;52.154;5.580;2023-09-30T13:32:47;5.75;;;3.58;;
24357;SDS011;13668;52.154;5.580;2023-09-30T13:35:13;6.82;;;2.35;;
24357;SDS011;13668;52.154;5.580;2023-09-30T13:37:39;4.70;;;1.73;;
24357;SDS011;13668;52.154;5.580;2023-09-30T13:40:06;4.90;;;1.65;;
24357;SDS011;13668;52.154;5.580;2023-09-30T13:42:36;3.83;;;1.98;;
24357;SDS011;13668;52.154;5.580;2023-09-30T13:45:02;4.15;;;1.58;;
24357;SDS011;13668;52.154;5.580;2023-09-30T13:47:28;4.68;;;2.38;;
24357;SDS011;13668;52.154;5.580;2023-09-30T13:49:54;3.80;;;1.55;;
24357;SDS011;13668;52.154;5.580;2023-09-30T13:52:21;5.75;;;2.10;;
24357;SDS011;13668;52.154;5.580;2023-09-30T13:54:47;6.10;;;1.73;;
24357;SDS011;13668;52.154;5.580;2023-09-30T13:57:13;3.92;;;1.52;;
24357;SDS011;13668;52.154;5.580;2023-09-30T13:59:39;6.45;;;2.05;;
24357;SDS011;13668;52.154;5.580;2023-09-30T14:02:06;2.83;;;1.70;;
24357;SDS011;13668;52.154;5.580;2023-09-30T14:04:32;3.92;;;1.63;;
24357;SDS011;13668;52.154;5.580;2023-09-30T14:07:02;4.50;;;1.67;;
24357;SDS011;13668;52.154;5.580;2023-09-30T14:09:28;4.82;;;1.60;;
24357;SDS011;13668;52.154;5.580;2023-09-30T14:11:54;2.90;;;1.83;;
24357;SDS011;13668;52.154;5.580;2023-09-30T14:14:21;2.92;;;1.58;;
24357;SDS011;13668;52.154;5.580;2023-09-30T14:16:47;5.53;;;2.13;;
24357;SDS011;13668;52.154;5.580;2023-09-30T14:19:13;4.53;;;2.20;;
24357;SDS011;13668;52.154;5.580;2023-09-30T14:21:42;5.40;;;1.88;;
24357;SDS011;13668;52.154;5.580;2023-09-30T14:24:08;5.35;;;1.50;;
24357;SDS011;13668;52.154;5.580;2023-09-30T14:26:34;4.32;;;1.42;;
24357;SDS011;13668;52.154;5.580;2023-09-30T14:29:00;5.55;;;2.17;;
24357;SDS011;13668;52.154;5.580;2023-09-30T14:31:26;4.78;;;1.95;;
24357;SDS011;13668;52.154;5.580;2023-09-30T14:33:52;2.83;;;1.98;;
24357;SDS011;13668;52.154;5.580;2023-09-30T14:36:18;5.72;;;2.10;;
24357;SDS011;13668;52.154;5.580;2023-09-30T14:38:44;5.05;;;1.83;;
24357;SDS011;13668;52.154;5.580;2023-09-30T14:41:10;5.75;;;1.65;;
24357;SDS011;13668;52.154;5.580;2023-09-30T14:43:37;4.88;;;1.88;;
24357;SDS011;13668;52.154;5.580;2023-09-30T14:46:03;5.03;;;2.00;;
24357;SDS011;13668;52.154;5.580;2023-09-30T14:48:29;4.82;;;1.70;;
24357;SDS011;13668;52.154;5.580;2023-09-30T14:50:55;5.65;;;2.33;;
24357;SDS011;13668;52.154;5.580;2023-09-30T14:53:22;4.07;;;1.75;;
24357;SDS011;13668;52.154;5.580;2023-09-30T14:55:48;5.40;;;1.67;;
24357;SDS011;13668;52.154;5.580;2023-09-30T14:58:14;6.35;;;1.73;;
24357;SDS011;13668;52.154;5.580;2023-09-30T15:00:40;3.33;;;1.58;;